Hlavní strana
METAR-TAF:

METAR-TAF

Letiště :

Istanbul Atatürk, Turecko

Istanbul Atatürkovo letiště

zeměpisná šířka: 40-58N, zeměpisná délka: 028-49E, výška: 48 m

Aktuální stav počasí

Zpráva byla vytvořena před 40 minutami, v 18:20 UTC
vítr z různých směrů 2 kt
Teplota 18°C
Vlhkost vzduchu 56%
Tlak 1015 hPa
Viditelnost 10 km a více
Žádná oblačnost pod 1500 m, nevyskytují se cumulonimby.

METAR: LTBA 231820Z VRB02KT CAVOK 18/09 Q1015 NOSIG RMK RWY17L VRB02KT RWY05 00000KT RWY23 05001KT

Čas: 22:00 (19:00 UTC)

Předpověď počasí

Zpráva byla vytvořena před 2 hodinami a 20 minutami, v 16:40 UTC
Předpověď platná od 23 v 18 UTC do 24 v 24 UTC
vítr z různých směrů 2 kt
Viditelnost 10 km a více
Žádná oblačnost pod 1500 m, nevyskytují se cumulonimby.

TAF: LTBA 231640Z 2318/2424 VRB02KT CAVOK

Stav a předpovědi počasí z více než 4 000 letišť (zprávy METAR a TAF).

Červené a žluté tečky na mapě představují dostupné meteorologické stanice.

Když kurzor umístíte na tečku, zobrazí se název stanice.

Pak kliknutím zobrazíte stav a předpověď počasí.

Chcete-li změnit mapu, kliknutím na zelené tlačítko se znaménkem +mapu přiblížíte, kliknutím na zelené tlačítko se znaménkem – mapu oddálíte a kliknutím na zelené šipky přejdete na sousední mapy.


METAR-TAF: